Principe Do Alentejo — CUMJ3 — position and weather

sailwx.info

Track history (hours):
 
Tides and Currents Weather Stations Pressure Air Temp Water Temp Dewpoint Dewpoint Depression Visibility Wind Speed Wind Dir Waves Ship Positions

Principe Do Alentejo

Last reported at 2017-Oct-04 05:34 UTC. Time now 2017-Oct-18 13:04 UTC.
Position N 37°57' W 008°52'.
Warning: this ship's position is 14 days out of date.

Length 16 m.

MMSI: 263412890.

Date/timePositionNaut miles runAvg speedWind from/ knotsBaromVisibWave heightAir tempDewpointWater temp
2017-Oct-04 05:34N 37°57' W 008°52'0 0.0
2017-Oct-04 05:30N 37°57' W 008°52'3 6.3
2017-Oct-04 05:00N 37°54' W 008°52'4 7.9
2017-Oct-04 04:30N 37°50' W 008°51'0 0.2
2017-Oct-04 04:00N 37°50' W 008°51'0 0.0
2017-Oct-04 03:30N 37°50' W 008°51'0 0.1
2017-Oct-04 03:00N 37°50' W 008°51'2 4.4
2017-Oct-04 02:30N 37°52' W 008°50'2 4.1
2017-Oct-04 02:00N 37°54' W 008°49'2 4.9
2017-Oct-04 01:30N 37°55' W 008°52'4 7.7
2017-Oct-04 01:00N 37°58' W 008°55'3 5.9
2017-Oct-04 00:30N 38°00' W 008°52'1 1.6
2017-Oct-04 00:00N 37°60' W 008°53'3 6.0
2017-Oct-03 23:30N 37°57' W 008°54'1 2.5
2017-Oct-03 23:00N 37°57' W 008°52'0 0.0
2017-Oct-03 22:30N 37°57' W 008°52'0 0.0
2017-Oct-03 12:47N 37°57' W 008°52'0 0.0
2017-Oct-03 12:30N 37°57' W 008°52'0 0.0
2017-Oct-03 12:01N 37°57' W 008°52'0 0.0
2017-Oct-03 11:31N 37°57' W 008°52'2 3.9
2017-Oct-03 11:01N 37°55' W 008°52'3 6.7
2017-Oct-03 10:30N 37°52' W 008°50'0 0.5
2017-Oct-03 10:00N 37°52' W 008°50'0 0.2
2017-Oct-03 09:30N 37°52' W 008°50'1 1.5
2017-Oct-03 09:00N 37°53' W 008°50'0 0.0
2017-Oct-03 08:30N 37°53' W 008°50'0 0.3
2017-Oct-03 08:01N 37°53' W 008°50'0 0.2
2017-Oct-03 07:31N 37°53' W 008°50'0 0.0
2017-Oct-03 07:00N 37°53' W 008°50'0 0.0
2017-Oct-03 06:30N 37°53' W 008°50'1 1.6
2017-Oct-03 06:00N 37°53' W 008°49'3 6.2
2017-Oct-03 05:31N 37°50' W 008°49'3 6.8
2017-Oct-03 05:01N 37°53' W 008°49'2 3.8
2017-Oct-03 04:30N 37°54' W 008°51'3 5.7
2017-Oct-03 04:01N 37°57' W 008°52'0 0.0
2017-Oct-03 03:31N 37°57' W 008°52'0 0.0
2017-Oct-02 10:04N 37°57' W 008°52'0 0.0
2017-Oct-02 10:00N 37°57' W 008°52'0 0.0
2017-Oct-02 09:30N 37°57' W 008°52'0 0.7
2017-Oct-02 09:00N 37°57' W 008°52'4 8.0
2017-Oct-02 08:30N 37°53' W 008°52'3 5.7
2017-Oct-02 08:00N 37°50' W 008°52'0 0.3
2017-Oct-02 07:30N 37°50' W 008°52'0 0.1
2017-Oct-02 07:00N 37°50' W 008°52'2 3.9
2017-Oct-02 06:30N 37°48' W 008°51'1 1.6
2017-Oct-02 06:00N 37°49' W 008°51'0 0.7
2017-Oct-02 05:30N 37°49' W 008°51'1 2.6
2017-Oct-02 05:00N 37°50' W 008°51'2 3.2
2017-Oct-02 04:30N 37°51' W 008°51'0 0.5
2017-Oct-02 04:00N 37°52' W 008°51'2 4.8
2017-Oct-02 03:30N 37°54' W 008°52'4 8.0
2017-Oct-02 03:00N 37°58' W 008°54'4 7.8
2017-Oct-02 02:30N 38°01' W 008°51'4 8.3
2017-Oct-02 02:00N 38°05' W 008°51'4 7.3
2017-Oct-02 01:30N 38°08' W 008°48'3 6.2
2017-Oct-02 01:00N 38°05' W 008°49'3 6.7
2017-Oct-02 00:30N 38°02' W 008°51'2 4.9
2017-Oct-02 00:00N 37°60' W 008°52'3 5.5
2017-Oct-01 23:30N 37°58' W 008°54'2 4.3
2017-Oct-01 23:00N 37°57' W 008°52'  
2017-Sep-29 12:30N 37°57' W 008°52'3 5.4
2017-Sep-29 12:01N 37°55' W 008°50'1 1.0
2017-Sep-29 11:31N 37°54' W 008°50'0 0.1
2017-Sep-29 11:00N 37°54' W 008°50'1 1.1
2017-Sep-29 10:31N 37°54' W 008°49'3 6.1
2017-Sep-29 10:01N 37°52' W 008°50'2 4.0
2017-Sep-29 09:31N 37°50' W 008°52'1 1.4
2017-Sep-29 09:01N 37°49' W 008°52'0 0.3
2017-Sep-29 08:31N 37°49' W 008°52'3 5.0
2017-Sep-29 08:00N 37°47' W 008°51'3 7.0
2017-Sep-29 07:31N 37°43' W 008°50'0 0.2
2017-Sep-29 07:01N 37°43' W 008°50'0 0.2
2017-Sep-29 06:31N 37°43' W 008°50'3 6.3
2017-Sep-29 06:01N 37°46' W 008°50'3 6.8
2017-Sep-29 05:30N 37°50' W 008°50'4 8.0
2017-Sep-29 05:00N 37°54' W 008°50'4 7.7
2017-Sep-29 04:30N 37°57' W 008°52'0 0.3
2017-Sep-29 04:01N 37°57' W 008°52'0 0.0
2017-Sep-29 03:31N 37°57' W 008°52'  
2017-Sep-25 12:46N 37°57' W 008°52'0 0.0
2017-Sep-25 12:30N 37°57' W 008°52'0 0.0
2017-Sep-25 12:00N 37°57' W 008°52'0 0.0
2017-Sep-25 11:30N 37°57' W 008°52'0 0.2
2017-Sep-25 11:00N 37°57' W 008°52'0 0.0
2017-Sep-25 10:30N 37°57' W 008°52'1 1.0
2017-Sep-25 10:00N 37°57' W 008°52'4 8.3
2017-Sep-25 09:30N 37°53' W 008°52'4 7.0
2017-Sep-25 09:00N 37°49' W 008°51'0 0.0
2017-Sep-25 08:30N 37°49' W 008°51'0 0.5
2017-Sep-25 08:00N 37°49' W 008°51'  
Track history (hours):
 
Tides and Currents Weather Stations Pressure Air Temp Water Temp Dewpoint Dewpoint Depression Visibility Wind Speed Wind Dir Waves Ship Positions

Principe Do Alentejo

Last reported at 2017-Oct-04 05:34 UTC. Time now 2017-Oct-18 13:04 UTC.
Position N 37°57' W 008°52'.
Warning: this ship's position is 14 days out of date.

Length 16 m.

MMSI: 263412890.

Date/timePositionNaut miles runAvg speedWind from/ knotsBaromVisibWave heightAir tempDewpointWater temp
2017-Oct-04 05:34N 37°57' W 008°52'0 0.0
2017-Oct-04 05:30N 37°57' W 008°52'3 6.3
2017-Oct-04 05:00N 37°54' W 008°52'4 7.9
2017-Oct-04 04:30N 37°50' W 008°51'0 0.2
2017-Oct-04 04:00N 37°50' W 008°51'0 0.0
2017-Oct-04 03:30N 37°50' W 008°51'0 0.1
2017-Oct-04 03:00N 37°50' W 008°51'2 4.4
2017-Oct-04 02:30N 37°52' W 008°50'2 4.1
2017-Oct-04 02:00N 37°54' W 008°49'2 4.9
2017-Oct-04 01:30N 37°55' W 008°52'4 7.7
2017-Oct-04 01:00N 37°58' W 008°55'3 5.9
2017-Oct-04 00:30N 38°00' W 008°52'1 1.6
2017-Oct-04 00:00N 37°60' W 008°53'3 6.0
2017-Oct-03 23:30N 37°57' W 008°54'1 2.5
2017-Oct-03 23:00N 37°57' W 008°52'0 0.0
2017-Oct-03 22:30N 37°57' W 008°52'0 0.0
2017-Oct-03 12:47N 37°57' W 008°52'0 0.0
2017-Oct-03 12:30N 37°57' W 008°52'0 0.0
2017-Oct-03 12:01N 37°57' W 008°52'0 0.0
2017-Oct-03 11:31N 37°57' W 008°52'2 3.9
2017-Oct-03 11:01N 37°55' W 008°52'3 6.7
2017-Oct-03 10:30N 37°52' W 008°50'0 0.5
2017-Oct-03 10:00N 37°52' W 008°50'0 0.2
2017-Oct-03 09:30N 37°52' W 008°50'1 1.5
2017-Oct-03 09:00N 37°53' W 008°50'0 0.0
2017-Oct-03 08:30N 37°53' W 008°50'0 0.3
2017-Oct-03 08:01N 37°53' W 008°50'0 0.2
2017-Oct-03 07:31N 37°53' W 008°50'0 0.0
2017-Oct-03 07:00N 37°53' W 008°50'0 0.0
2017-Oct-03 06:30N 37°53' W 008°50'1 1.6
2017-Oct-03 06:00N 37°53' W 008°49'3 6.2
2017-Oct-03 05:31N 37°50' W 008°49'3 6.8
2017-Oct-03 05:01N 37°53' W 008°49'2 3.8
2017-Oct-03 04:30N 37°54' W 008°51'3 5.7
2017-Oct-03 04:01N 37°57' W 008°52'0 0.0
2017-Oct-03 03:31N 37°57' W 008°52'0 0.0
2017-Oct-02 10:04N 37°57' W 008°52'0 0.0
2017-Oct-02 10:00N 37°57' W 008°52'0 0.0
2017-Oct-02 09:30N 37°57' W 008°52'0 0.7
2017-Oct-02 09:00N 37°57' W 008°52'4 8.0
2017-Oct-02 08:30N 37°53' W 008°52'3 5.7
2017-Oct-02 08:00N 37°50' W 008°52'0 0.3
2017-Oct-02 07:30N 37°50' W 008°52'0 0.1
2017-Oct-02 07:00N 37°50' W 008°52'2 3.9
2017-Oct-02 06:30N 37°48' W 008°51'1 1.6
2017-Oct-02 06:00N 37°49' W 008°51'0 0.7
2017-Oct-02 05:30N 37°49' W 008°51'1 2.6
2017-Oct-02 05:00N 37°50' W 008°51'2 3.2
2017-Oct-02 04:30N 37°51' W 008°51'0 0.5
2017-Oct-02 04:00N 37°52' W 008°51'2 4.8
2017-Oct-02 03:30N 37°54' W 008°52'4 8.0
2017-Oct-02 03:00N 37°58' W 008°54'4 7.8
2017-Oct-02 02:30N 38°01' W 008°51'4 8.3
2017-Oct-02 02:00N 38°05' W 008°51'4 7.3
2017-Oct-02 01:30N 38°08' W 008°48'3 6.2
2017-Oct-02 01:00N 38°05' W 008°49'3 6.7
2017-Oct-02 00:30N 38°02' W 008°51'2 4.9
2017-Oct-02 00:00N 37°60' W 008°52'3 5.5
2017-Oct-01 23:30N 37°58' W 008°54'2 4.3
2017-Oct-01 23:00N 37°57' W 008°52'  
2017-Sep-29 12:30N 37°57' W 008°52'3 5.4
2017-Sep-29 12:01N 37°55' W 008°50'1 1.0
2017-Sep-29 11:31N 37°54' W 008°50'0 0.1
2017-Sep-29 11:00N 37°54' W 008°50'1 1.1
2017-Sep-29 10:31N 37°54' W 008°49'3 6.1
2017-Sep-29 10:01N 37°52' W 008°50'2 4.0
2017-Sep-29 09:31N 37°50' W 008°52'1 1.4
2017-Sep-29 09:01N 37°49' W 008°52'0 0.3
2017-Sep-29 08:31N 37°49' W 008°52'3 5.0
2017-Sep-29 08:00N 37°47' W 008°51'3 7.0
2017-Sep-29 07:31N 37°43' W 008°50'0 0.2
2017-Sep-29 07:01N 37°43' W 008°50'0 0.2
2017-Sep-29 06:31N 37°43' W 008°50'3 6.3
2017-Sep-29 06:01N 37°46' W 008°50'3 6.8
2017-Sep-29 05:30N 37°50' W 008°50'4 8.0
2017-Sep-29 05:00N 37°54' W 008°50'4 7.7
2017-Sep-29 04:30N 37°57' W 008°52'0 0.3
2017-Sep-29 04:01N 37°57' W 008°52'0 0.0
2017-Sep-29 03:31N 37°57' W 008°52'  
2017-Sep-25 12:46N 37°57' W 008°52'0 0.0
2017-Sep-25 12:30N 37°57' W 008°52'0 0.0
2017-Sep-25 12:00N 37°57' W 008°52'0 0.0
2017-Sep-25 11:30N 37°57' W 008°52'0 0.2
2017-Sep-25 11:00N 37°57' W 008°52'0 0.0
2017-Sep-25 10:30N 37°57' W 008°52'1 1.0
2017-Sep-25 10:00N 37°57' W 008°52'4 8.3
2017-Sep-25 09:30N 37°53' W 008°52'4 7.0
2017-Sep-25 09:00N 37°49' W 008°51'0 0.0
2017-Sep-25 08:30N 37°49' W 008°51'0 0.5
2017-Sep-25 08:00N 37°49' W 008°51'  

Dump ship's entire track history